Time;durP1;ratioP1;P1;durP2;ratioP2;P2;SDS_P1;SDS_P2;PMS_P1;PMS_P2;Temp;Humidity;BMP_temperature;BMP_pressure;BME280_temperature;BME280_humidity;BME280_pressure;Samples;Min_cycle;Max_cycle;Signal;HPM_P1;HPM_P2
2023/07/18 00:02:05;;;;;;;3.35;1.13;;;14.90;99.90;;;;;;5076281;28;20075;-81
2023/07/18 00:04:32;;;;;;;8.05;1.30;;;14.80;99.90;;;;;;5076303;28;20040;-80
2023/07/18 00:06:59;;;;;;;6.72;1.50;;;14.80;99.90;;;;;;5057201;28;20048;-81
2023/07/18 00:09:26;;;;;;;3.70;1.20;;;14.80;99.90;;;;;;5058751;28;20115;-80
2023/07/18 00:11:53;;;;;;;2.72;1.05;;;14.80;99.90;;;;;;5075591;28;20102;-82
2023/07/18 00:14:20;;;;;;;6.80;1.23;;;14.80;99.90;;;;;;5076227;28;20451;-78
2023/07/18 00:16:47;;;;;;;4.20;1.30;;;14.70;99.90;;;;;;5076183;28;20059;-82
2023/07/18 00:19:13;;;;;;;4.53;1.30;;;14.70;99.90;;;;;;5075069;28;20112;-82
2023/07/18 00:21:40;;;;;;;3.67;1.23;;;14.70;99.90;;;;;;5075974;28;20072;-83
2023/07/18 00:24:07;;;;;;;8.00;1.40;;;14.70;99.90;;;;;;5058352;28;20455;-81
2023/07/18 00:26:36;;;;;;;4.82;1.60;;;14.70;99.90;;;;;;5075140;28;20102;-81
2023/07/18 00:29:03;;;;;;;6.03;1.33;;;14.60;99.90;;;;;;5074694;28;20072;-81
2023/07/18 00:31:32;;;;;;;4.35;1.25;;;14.60;99.90;;;;;;5058209;28;20046;-80
2023/07/18 00:33:59;;;;;;;8.23;1.30;;;14.60;99.90;;;;;;5075618;28;20037;-79
2023/07/18 00:36:26;;;;;;;5.00;1.27;;;14.50;99.90;;;;;;5058519;28;20040;-81
2023/07/18 00:38:52;;;;;;;4.10;1.33;;;14.50;99.90;;;;;;5074679;28;20075;-80
2023/07/18 00:41:19;;;;;;;4.68;1.20;;;14.50;99.90;;;;;;5058132;28;20068;-80
2023/07/18 00:43:46;;;;;;;3.85;1.27;;;14.40;99.90;;;;;;5058270;28;20040;-82
2023/07/18 00:46:15;;;;;;;6.38;1.73;;;14.40;99.90;;;;;;5040809;28;20049;-82
2023/07/18 00:48:42;;;;;;;7.32;1.75;;;14.30;99.90;;;;;;5057830;28;20036;-79
2023/07/18 00:51:09;;;;;;;3.97;1.23;;;14.30;99.90;;;;;;5058099;28;20098;-80
2023/07/18 00:53:35;;;;;;;8.23;1.75;;;14.30;99.90;;;;;;5057179;28;20145;-82
2023/07/18 00:56:04;;;;;;;4.93;1.42;;;14.40;99.90;;;;;;5058042;28;20036;-83
2023/07/18 00:58:31;;;;;;;6.40;1.63;;;14.30;99.90;;;;;;5056656;28;20036;-78
2023/07/18 01:00:58;;;;;;;3.50;1.30;;;14.30;99.90;;;;;;5057738;28;20060;-82
2023/07/18 01:03:25;;;;;;;2.60;1.10;;;14.20;99.90;;;;;;5075315;28;20049;-81
2023/07/18 01:05:53;;;;;;;2.63;1.00;;;14.20;99.90;;;;;;5056954;28;20052;-78
2023/07/18 01:08:19;;;;;;;5.75;1.33;;;14.20;99.90;;;;;;5057594;28;20376;-81
2023/07/18 01:10:46;;;;;;;5.32;1.40;;;14.20;99.90;;;;;;5057590;28;20750;-81
2023/07/18 01:13:13;;;;;;;5.85;1.30;;;14.10;99.90;;;;;;5056357;28;20102;-78
2023/07/18 01:15:41;;;;;;;3.92;1.15;;;14.10;99.90;;;;;;5057393;28;20045;-81
2023/07/18 01:18:09;;;;;;;4.13;1.45;;;14.10;99.90;;;;;;5056713;28;20038;-81
2023/07/18 01:20:37;;;;;;;3.38;1.17;;;14.00;99.90;;;;;;5057353;28;20052;-78
2023/07/18 01:23:04;;;;;;;6.03;1.50;;;14.00;99.90;;;;;;5057475;28;20064;-80
2023/07/18 01:25:33;;;;;;;4.45;1.23;;;14.00;99.90;;;;;;5074162;28;20087;-80
2023/07/18 01:28:00;;;;;;;3.85;1.17;;;13.90;99.90;;;;;;5057437;28;20049;-79
2023/07/18 01:30:27;;;;;;;4.70;1.20;;;14.00;99.90;;;;;;5074725;28;20048;-78
2023/07/18 01:32:54;;;;;;;5.53;1.27;;;13.90;99.90;;;;;;5074321;28;20036;-82
2023/07/18 01:35:23;;;;;;;6.20;1.40;;;13.90;99.90;;;;;;5057583;28;20072;-79
2023/07/18 01:37:50;;;;;;;3.17;1.20;;;13.80;99.90;;;;;;5057318;28;20080;-81
2023/07/18 01:40:19;;;;;;;3.65;1.17;;;13.80;99.90;;;;;;5073408;28;20056;-83
2023/07/18 01:42:46;;;;;;;6.00;1.20;;;13.80;99.90;;;;;;5057296;28;20078;-79
2023/07/18 01:45:14;;;;;;;5.97;1.17;;;13.80;99.90;;;;;;5056540;28;20110;-81
2023/07/18 01:47:41;;;;;;;3.72;1.33;;;13.70;99.90;;;;;;5057517;28;20071;-79
2023/07/18 01:50:08;;;;;;;3.08;1.25;;;13.80;99.90;;;;;;5056744;28;20087;-82
2023/07/18 01:52:36;;;;;;;3.38;1.35;;;13.70;99.90;;;;;;5055823;28;20111;-82
2023/07/18 01:55:03;;;;;;;6.00;1.42;;;13.70;99.90;;;;;;5074689;28;20036;-81
2023/07/18 01:57:30;;;;;;;2.28;1.10;;;13.70;99.90;;;;;;5074834;28;20047;-80
2023/07/18 01:59:57;;;;;;;4.97;1.33;;;13.70;99.90;;;;;;5055823;28;20040;-80
2023/07/18 02:02:23;;;;;;;6.05;1.40;;;13.60;99.90;;;;;;5074378;28;20120;-80
2023/07/18 02:04:50;;;;;;;9.32;1.20;;;13.70;99.90;;;;;;5056418;28;20040;-83
2023/07/18 02:07:17;;;;;;;8.60;1.40;;;13.60;99.90;;;;;;5056603;28;20041;-81
2023/07/18 02:09:45;;;;;;;3.17;1.27;;;13.60;99.90;;;;;;5056721;28;20110;-80
2023/07/18 02:12:11;;;;;;;3.47;1.20;;;13.60;99.90;;;;;;5056236;28;20075;-82
2023/07/18 02:14:38;;;;;;;4.60;1.08;;;13.60;99.90;;;;;;5040467;28;20049;-81
2023/07/18 02:17:05;;;;;;;7.72;1.23;;;13.60;99.90;;;;;;5057303;28;20036;-80
2023/07/18 02:19:32;;;;;;;3.65;1.20;;;13.50;99.90;;;;;;5073587;28;20032;-79
2023/07/18 02:21:58;;;;;;;4.85;1.27;;;13.50;99.90;;;;;;5074573;28;20043;-83
2023/07/18 02:24:25;;;;;;;4.50;1.45;;;13.50;99.90;;;;;;5040362;28;20052;-80
2023/07/18 02:26:54;;;;;;;3.30;1.30;;;13.40;99.90;;;;;;5056238;28;20450;-80
2023/07/18 02:29:20;;;;;;;2.45;1.20;;;13.40;99.90;;;;;;5057300;28;20052;-78
2023/07/18 02:31:49;;;;;;;4.70;1.30;;;13.30;99.90;;;;;;5059638;28;20071;-82
2023/07/18 02:34:16;;;;;;;2.92;1.10;;;13.30;99.90;;;;;;5078121;28;20071;-81
2023/07/18 02:39:32;;;;;;;11.15;1.45;;;13.20;99.90;;;;;;5077215;28;20357;-81
2023/07/18 02:41:59;;;;;;;9.40;1.13;;;13.20;99.90;;;;;;5060566;28;20443;-81
2023/07/18 02:44:26;;;;;;;4.38;1.20;;;13.20;99.90;;;;;;5077815;28;20128;-81
2023/07/18 02:46:54;;;;;;;8.32;1.27;;;13.10;99.90;;;;;;5059443;28;20041;-80
2023/07/18 02:49:20;;;;;;;4.40;1.27;;;13.10;99.90;;;;;;5060225;28;20131;-79
2023/07/18 02:51:47;;;;;;;6.55;1.40;;;13.10;99.90;;;;;;5077038;28;20044;-80
2023/07/18 02:54:14;;;;;;;4.72;1.15;;;13.10;99.90;;;;;;5060128;28;20037;-81
2023/07/18 02:56:41;;;;;;;2.67;1.15;;;13.00;99.90;;;;;;5077635;28;20075;-79
2023/07/18 02:59:07;;;;;;;3.08;1.30;;;13.00;99.90;;;;;;5059282;28;20123;-82
2023/07/18 03:01:34;;;;;;;2.97;1.02;;;13.00;99.90;;;;;;5059921;28;20058;-82
2023/07/18 03:04:01;;;;;;;7.97;1.25;;;13.00;99.90;;;;;;5059924;28;20033;-83
2023/07/18 03:06:28;;;;;;;8.70;1.45;;;12.90;99.90;;;;;;5059213;28;20059;-80
2023/07/18 03:08:55;;;;;;;5.93;1.30;;;12.90;99.90;;;;;;5077550;28;20328;-84
2023/07/18 03:11:22;;;;;;;3.38;1.25;;;12.90;99.90;;;;;;5059440;28;20079;-80
2023/07/18 03:13:49;;;;;;;3.53;1.10;;;12.90;99.90;;;;;;5077797;28;20051;-81
2023/07/18 03:16:18;;;;;;;3.08;1.23;;;12.90;99.90;;;;;;5059900;28;20044;-82
2023/07/18 03:18:48;;;;;;;2.65;1.10;;;12.80;99.90;;;;;;5076359;28;20032;-81
2023/07/18 03:21:16;;;;;;;5.05;1.27;;;12.80;99.90;;;;;;5059830;28;20083;-81
2023/07/18 03:23:43;;;;;;;2.92;1.10;;;12.80;99.90;;;;;;5077365;28;20147;-81
2023/07/18 03:26:11;;;;;;;3.13;1.17;;;12.80;99.90;;;;;;5042739;28;20068;-80
2023/07/18 03:28:38;;;;;;;3.83;1.00;;;12.70;99.90;;;;;;5076868;28;20044;-81
2023/07/18 03:31:05;;;;;;;4.28;1.05;;;12.70;99.90;;;;;;5059794;28;20072;-83
2023/07/18 03:33:34;;;;;;;5.97;1.27;;;12.70;99.90;;;;;;5059351;28;20079;-81
2023/07/18 03:38:48;;;;;;;3.28;1.40;;;12.70;99.90;;;;;;5058435;28;20044;-79
2023/07/18 03:41:15;;;;;;;3.80;1.30;;;12.70;99.90;;;;;;5059019;28;20060;-80
2023/07/18 03:43:42;;;;;;;5.32;1.38;;;12.60;99.90;;;;;;5076900;28;20051;-78
2023/07/18 03:46:09;;;;;;;6.22;1.30;;;12.60;99.90;;;;;;5076273;28;20036;-83
2023/07/18 03:48:37;;;;;;;2.35;1.05;;;12.60;99.90;;;;;;5076689;28;20067;-80
2023/07/18 03:51:04;;;;;;;3.85;1.30;;;12.60;99.90;;;;;;5076856;28;20040;-80
2023/07/18 03:53:32;;;;;;;2.83;0.98;;;12.50;99.90;;;;;;5058405;28;20072;-82
2023/07/18 03:55:59;;;;;;;3.88;1.35;;;12.50;99.90;;;;;;5076650;28;20128;-81
2023/07/18 03:58:26;;;;;;;4.82;1.20;;;12.50;99.90;;;;;;5058115;28;20370;-81
2023/07/18 04:00:53;;;;;;;5.40;1.27;;;12.50;99.90;;;;;;5076532;28;20083;-79
2023/07/18 04:03:26;;;;;;;4.55;1.45;;;12.40;99.90;;;;;;5060293;28;20040;-80
2023/07/18 04:05:54;;;;;;;7.28;1.40;;;12.40;99.90;;;;;;5075755;28;20040;-79
2023/07/18 04:08:21;;;;;;;8.10;1.55;;;12.40;99.90;;;;;;5076094;28;20040;-83
2023/07/18 04:10:47;;;;;;;3.25;1.00;;;12.30;99.90;;;;;;5076137;28;20036;-80
2023/07/18 04:13:14;;;;;;;2.60;1.10;;;12.30;99.90;;;;;;5075263;28;20049;-82
2023/07/18 04:15:43;;;;;;;4.20;1.10;;;12.30;99.90;;;;;;5058639;28;20128;-82
2023/07/18 04:18:10;;;;;;;3.50;1.30;;;12.30;99.90;;;;;;5041213;28;20047;-82
2023/07/18 04:20:36;;;;;;;5.95;1.45;;;12.30;99.90;;;;;;5075685;28;20051;-79
2023/07/18 04:23:03;;;;;;;2.75;1.30;;;12.30;99.90;;;;;;5075845;28;20041;-80
2023/07/18 04:25:35;;;;;;;5.95;1.08;;;12.30;99.90;;;;;;5075192;28;20387;-80
2023/07/18 04:28:02;;;;;;;5.10;1.48;;;12.30;99.90;;;;;;5076369;28;20048;-82
2023/07/18 04:30:29;;;;;;;2.78;1.10;;;12.30;99.90;;;;;;5075615;28;20052;-82
2023/07/18 04:32:56;;;;;;;4.07;1.00;;;12.30;99.90;;;;;;5075274;28;20127;-79
2023/07/18 04:35:22;;;;;;;2.35;1.02;;;12.30;99.90;;;;;;5075618;28;20106;-77
2023/07/18 04:37:50;;;;;;;4.10;1.20;;;12.30;99.90;;;;;;5075705;28;20087;-82
2023/07/18 04:40:16;;;;;;;1.80;0.93;;;12.40;99.90;;;;;;5074408;28;20471;-82
2023/07/18 04:42:43;;;;;;;5.90;1.38;;;12.40;99.90;;;;;;5058445;28;20132;-82
2023/07/18 04:45:10;;;;;;;7.68;1.40;;;12.40;99.90;;;;;;5057528;28;20083;-83
2023/07/18 04:47:36;;;;;;;3.17;1.00;;;12.40;99.90;;;;;;5058192;28;20128;-81
2023/07/18 04:50:03;;;;;;;2.47;1.05;;;12.50;99.90;;;;;;5041475;28;20058;-81
2023/07/18 04:52:30;;;;;;;7.25;1.40;;;12.50;99.90;;;;;;5056729;28;20106;-81
2023/07/18 04:54:57;;;;;;;3.15;1.10;;;12.60;99.90;;;;;;5075589;28;20064;-79
2023/07/18 04:57:26;;;;;;;2.35;1.00;;;12.70;99.90;;;;;;5075578;28;20040;-83
2023/07/18 04:59:53;;;;;;;7.53;1.38;;;12.80;99.90;;;;;;5057034;28;20399;-81
2023/07/18 05:02:19;;;;;;;5.38;1.10;;;12.80;99.90;;;;;;5057546;28;20048;-82
2023/07/18 05:04:46;;;;;;;3.20;1.00;;;12.90;99.90;;;;;;5074658;28;20397;-83
2023/07/18 05:07:14;;;;;;;3.33;1.23;;;13.00;99.90;;;;;;5075254;28;20045;-78
2023/07/18 05:09:41;;;;;;;6.55;1.15;;;13.00;99.90;;;;;;5075010;28;20113;-81
2023/07/18 05:12:08;;;;;;;4.70;1.30;;;13.10;99.90;;;;;;5074377;28;20070;-82
2023/07/18 05:14:35;;;;;;;4.05;1.40;;;13.20;99.90;;;;;;5075187;28;20151;-83
2023/07/18 05:19:47;;;;;;;6.03;1.45;;;13.40;99.90;;;;;;5074178;28;20058;-81
2023/07/18 05:22:14;;;;;;;6.57;1.52;;;13.50;99.90;;;;;;5057315;28;20119;-79
2023/07/18 05:24:41;;;;;;;5.07;1.40;;;13.60;99.90;;;;;;5074797;28;20040;-80
2023/07/18 05:27:08;;;;;;;4.35;1.10;;;13.70;99.90;;;;;;5075020;28;20055;-79
2023/07/18 05:29:34;;;;;;;4.28;1.40;;;13.80;99.90;;;;;;5074739;28;20471;-81
2023/07/18 05:32:01;;;;;;;9.30;1.45;;;13.80;99.90;;;;;;5056416;28;20052;-83
2023/07/18 05:34:28;;;;;;;7.03;1.20;;;13.90;99.90;;;;;;5075133;28;20044;-79
2023/07/18 05:36:56;;;;;;;7.88;1.42;;;14.00;99.90;;;;;;5057395;28;20398;-83
2023/07/18 05:39:23;;;;;;;5.40;1.55;;;14.10;99.90;;;;;;5056490;28;20091;-77
2023/07/18 05:41:50;;;;;;;5.10;1.40;;;14.10;99.90;;;;;;5057230;28;20132;-82
2023/07/18 05:44:16;;;;;;;5.55;2.17;;;14.20;99.90;;;;;;5075048;28;20040;-81
2023/07/18 05:46:44;;;;;;;5.38;1.20;;;14.20;99.90;;;;;;5056667;28;20044;-80
2023/07/18 05:49:11;;;;;;;4.47;1.17;;;14.30;99.90;;;;;;5056940;28;20143;-80
2023/07/18 05:51:38;;;;;;;6.22;1.45;;;14.30;99.90;;;;;;5056491;28;20052;-78
2023/07/18 05:54:04;;;;;;;6.78;1.30;;;14.30;99.90;;;;;;5057298;28;20056;-80
2023/07/18 05:56:31;;;;;;;10.63;1.70;;;14.50;99.90;;;;;;5040707;28;20421;-80
2023/07/18 05:58:58;;;;;;;8.38;1.50;;;14.60;99.90;;;;;;5073646;28;20037;-79
2023/07/18 06:01:24;;;;;;;7.13;1.30;;;14.70;99.90;;;;;;5057163;28;20471;-81
2023/07/18 06:03:51;;;;;;;3.38;1.45;;;14.80;99.90;;;;;;5076122;28;20044;-78
2023/07/18 06:06:19;;;;;;;5.57;1.42;;;14.90;99.90;;;;;;5077972;28;20040;-81
2023/07/18 06:08:46;;;;;;;7.60;1.40;;;14.90;99.90;;;;;;5078092;28;20036;-80
2023/07/18 06:11:12;;;;;;;8.70;1.60;;;14.90;99.90;;;;;;5078572;28;20036;-80
2023/07/18 06:13:41;;;;;;;10.13;1.42;;;14.90;99.90;;;;;;5077321;28;20098;-79
2023/07/18 06:16:10;;;;;;;5.07;1.30;;;15.00;99.90;;;;;;5078569;28;20132;-82
2023/07/18 06:18:36;;;;;;;5.80;1.58;;;15.00;99.90;;;;;;5077370;28;20041;-79
2023/07/18 06:21:03;;;;;;;7.05;1.50;;;15.20;99.90;;;;;;5078314;28;20028;-81
2023/07/18 06:23:30;;;;;;;9.57;1.63;;;15.40;99.90;;;;;;5060837;28;20064;-80
2023/07/18 06:25:56;;;;;;;6.78;1.65;;;15.50;99.90;;;;;;5077340;28;20032;-82
2023/07/18 06:28:24;;;;;;;5.55;1.50;;;15.60;99.90;;;;;;5074730;28;20044;-80
2023/07/18 06:30:50;;;;;;;6.88;1.45;;;15.80;99.90;;;;;;5057179;28;20140;-80
2023/07/18 06:33:19;;;;;;;6.50;1.30;;;15.90;99.90;;;;;;5061762;28;20051;-83
2023/07/18 06:38:31;;;;;;;4.47;1.48;;;16.10;99.90;;;;;;5077524;28;20352;-87
2023/07/18 06:40:58;;;;;;;7.68;1.48;;;16.10;99.90;;;;;;5077808;28;20090;-81
2023/07/18 06:43:25;;;;;;;7.55;1.63;;;16.10;99.90;;;;;;5043676;28;20063;-82
2023/07/18 06:48:22;;;;;;;6.82;1.42;;;16.40;99.90;;;;;;5078235;28;20045;-83
2023/07/18 06:50:48;;;;;;;9.90;1.88;;;16.70;99.90;;;;;;5060288;28;20365;-88
2023/07/18 06:53:15;;;;;;;3.90;1.30;;;17.00;99.90;;;;;;5059988;28;20101;-87
2023/07/18 06:55:42;;;;;;;8.02;1.67;;;17.30;99.90;;;;;;5060004;28;20072;-81
2023/07/18 06:58:09;;;;;;;6.47;1.40;;;17.50;99.90;;;;;;5059394;28;20040;-86
2023/07/18 07:00:36;;;;;;;5.18;1.50;;;17.60;99.90;;;;;;5060059;28;20037;-85
2023/07/18 07:03:02;;;;;;;7.43;1.80;;;17.80;99.90;;;;;;5060355;28;20401;-80
2023/07/18 07:08:36;;;;;;;10.30;1.40;;;17.70;99.90;;;;;;5077361;28;20056;-84
2023/07/18 07:11:04;;;;;;;6.55;1.50;;;17.90;99.90;;;;;;5060200;28;20076;-85
2023/07/18 07:13:30;;;;;;;9.10;1.50;;;18.00;99.90;;;;;;5059594;28;20044;-82
2023/07/18 07:15:57;;;;;;;8.00;1.48;;;18.10;99.90;;;;;;5042221;28;20068;-84
2023/07/18 07:18:24;;;;;;;13.48;1.77;;;18.30;99.90;;;;;;5076719;28;20106;-87
2023/07/18 07:20:51;;;;;;;4.72;1.30;;;18.30;99.90;;;;;;5043007;28;20048;-81
2023/07/18 07:23:17;;;;;;;3.97;1.08;;;18.40;99.90;;;;;;5059641;28;20048;-80
2023/07/18 07:25:45;;;;;;;3.22;1.08;;;18.50;99.90;;;;;;5053394;28;20032;-81
2023/07/18 07:28:12;;;;;;;5.43;1.30;;;18.70;99.90;;;;;;5076879;28;20045;-80
2023/07/18 07:30:38;;;;;;;6.20;1.20;;;18.90;99.90;;;;;;5059113;28;20044;-82
2023/07/18 07:33:05;;;;;;;6.45;1.20;;;19.30;99.90;;;;;;5075385;28;20048;-78
2023/07/18 07:35:33;;;;;;;6.10;1.10;;;19.40;99.90;;;;;;5059255;28;20102;-80
2023/07/18 07:38:00;;;;;;;4.72;1.17;;;19.60;99.90;;;;;;5058858;28;20068;-82
2023/07/18 07:40:26;;;;;;;3.47;1.23;;;19.60;99.90;;;;;;5076442;28;20044;-80
2023/07/18 07:42:53;;;;;;;8.73;1.20;;;19.60;99.90;;;;;;5058360;28;20079;-80
2023/07/18 07:45:21;;;;;;;7.05;1.20;;;19.60;99.90;;;;;;5076014;28;20072;-81
2023/07/18 07:47:48;;;;;;;5.72;1.73;;;19.80;99.90;;;;;;5076599;28;20075;-85
2023/07/18 07:50:15;;;;;;;4.15;1.17;;;20.10;99.90;;;;;;5058822;28;20052;-83
2023/07/18 07:52:43;;;;;;;11.55;1.20;;;20.40;99.90;;;;;;5041898;28;20044;-82
2023/07/18 07:57:55;;;;;;;4.40;1.20;;;20.60;99.90;;;;;;5076214;28;20084;-82
2023/07/18 08:00:22;;;;;;;4.95;1.20;;;20.70;99.90;;;;;;5058334;28;20519;-80
2023/07/18 08:02:49;;;;;;;5.72;1.17;;;20.70;99.90;;;;;;5058940;28;20456;-80
2023/07/18 08:05:15;;;;;;;4.20;1.02;;;20.90;99.90;;;;;;5058014;28;20093;-79
2023/07/18 08:07:43;;;;;;;4.57;1.33;;;21.00;99.90;;;;;;5058941;28;20180;-78
2023/07/18 08:10:10;;;;;;;3.78;0.98;;;21.10;99.90;;;;;;5075552;28;20041;-80
2023/07/18 08:12:37;;;;;;;4.75;1.30;;;21.20;99.90;;;;;;5075198;28;20140;-82
2023/07/18 08:15:04;;;;;;;5.22;1.02;;;21.30;99.90;;;;;;5075975;28;20041;-82
2023/07/18 08:17:31;;;;;;;4.53;1.10;;;21.50;99.90;;;;;;5058604;28;20033;-80
2023/07/18 08:19:58;;;;;;;4.25;1.20;;;21.60;99.90;;;;;;5057608;28;20033;-80
2023/07/18 08:22:25;;;;;;;2.85;0.90;;;21.70;99.90;;;;;;5075514;28;20371;-81
2023/07/18 08:24:51;;;;;;;4.13;1.30;;;21.70;99.90;;;;;;5074851;28;20105;-83
2023/07/18 08:27:20;;;;;;;5.38;1.10;;;21.70;99.90;;;;;;5074656;28;20063;-84
2023/07/18 08:29:47;;;;;;;6.40;1.30;;;21.70;99.90;;;;;;5075675;28;20083;-81
2023/07/18 08:32:14;;;;;;;3.28;1.10;;;21.70;99.90;;;;;;5055947;28;20144;-81
2023/07/18 08:34:41;;;;;;;3.72;1.00;;;21.50;99.90;;;;;;5075267;28;20037;-85
2023/07/18 08:37:10;;;;;;;5.53;1.23;;;21.70;99.90;;;;;;5058321;28;20319;-80
2023/07/18 08:39:37;;;;;;;3.20;1.08;;;22.00;99.90;;;;;;5056739;28;20119;-81
2023/07/18 08:42:04;;;;;;;8.02;1.20;;;22.10;99.90;;;;;;5075721;28;20040;-85
2023/07/18 08:44:30;;;;;;;7.32;1.25;;;21.80;99.90;;;;;;5075601;28;20067;-82
2023/07/18 08:46:59;;;;;;;3.08;1.08;;;21.40;99.90;;;;;;5074706;28;20058;-83
2023/07/18 08:49:28;;;;;;;4.40;1.40;;;21.40;99.90;;;;;;5041182;28;20367;-84
2023/07/18 08:51:55;;;;;;;5.57;1.67;;;21.50;99.90;;;;;;5074409;28;20141;-82
2023/07/18 08:54:22;;;;;;;4.20;1.33;;;21.90;99.90;;;;;;5057548;28;20091;-85
2023/07/18 08:56:49;;;;;;;3.05;1.00;;;22.20;99.90;;;;;;5075491;28;20091;-81
2023/07/18 08:59:15;;;;;;;4.15;1.20;;;22.30;99.90;;;;;;5074197;28;20409;-82
2023/07/18 09:01:42;;;;;;;6.90;1.75;;;22.40;99.90;;;;;;5075100;28;20045;-83
2023/07/18 09:04:09;;;;;;;4.40;1.30;;;22.30;99.90;;;;;;5075054;28;20036;-82
2023/07/18 09:06:38;;;;;;;5.75;1.30;;;22.40;99.90;;;;;;5074536;28;20040;-84
2023/07/18 09:09:04;;;;;;;6.10;1.17;;;22.30;99.90;;;;;;5057589;28;20076;-81
2023/07/18 09:11:32;;;;;;;4.25;1.20;;;22.50;99.90;;;;;;5074567;28;20082;-84
2023/07/18 09:13:58;;;;;;;6.78;1.45;;;22.60;99.90;;;;;;5074841;28;20041;-81
2023/07/18 09:16:27;;;;;;;7.60;1.30;;;22.90;99.90;;;;;;5057641;28;20040;-83
2023/07/18 09:18:54;;;;;;;3.88;1.20;;;23.20;99.90;;;;;;5073938;28;20051;-85
2023/07/18 09:21:22;;;;;;;5.15;1.50;;;23.10;99.90;;;;;;5074925;28;20064;-82
2023/07/18 09:23:49;;;;;;;7.15;1.35;;;23.00;99.90;;;;;;5075220;28;20065;-87
2023/07/18 09:26:17;;;;;;;2.67;1.00;;;22.90;99.90;;;;;;5074430;28;20143;-84
2023/07/18 09:28:43;;;;;;;4.97;1.27;;;23.00;99.90;;;;;;5056898;28;20068;-84
2023/07/18 09:31:10;;;;;;;7.57;1.10;;;23.00;99.90;;;;;;5074838;28;20044;-85
2023/07/18 09:33:37;;;;;;;8.50;1.30;;;23.10;99.90;;;;;;5039776;28;20118;-82
2023/07/18 09:36:06;;;;;;;4.53;1.35;;;23.30;99.90;;;;;;5057296;28;20053;-87
2023/07/18 09:38:34;;;;;;;8.68;1.40;;;23.50;99.90;;;;;;5056494;28;20466;-84
2023/07/18 09:41:00;;;;;;;5.20;1.20;;;23.70;99.90;;;;;;5074425;28;20129;-83
2023/07/18 09:43:28;;;;;;;7.93;1.20;;;23.70;99.90;;;;;;5074890;28;20044;-87
2023/07/18 09:45:58;;;;;;;3.25;0.98;;;23.80;99.90;;;;;;5073902;28;20344;-84
2023/07/18 09:48:25;;;;;;;5.18;1.50;;;23.80;99.90;;;;;;5057480;28;20048;-89
2023/07/18 09:50:52;;;;;;;6.78;1.50;;;24.20;99.90;;;;;;5040817;28;20041;-90
2023/07/18 09:53:19;;;;;;;7.65;1.50;;;24.50;99.90;;;;;;5074420;28;20371;-89
2023/07/18 09:55:47;;;;;;;3.58;1.10;;;24.50;99.90;;;;;;5057512;28;20103;-90
2023/07/18 09:58:14;;;;;;;6.40;1.20;;;24.50;99.90;;;;;;5074098;28;20036;-92
2023/07/18 10:00:41;;;;;;;5.40;1.25;;;24.60;99.90;;;;;;5058562;28;20051;-87
2023/07/18 10:03:08;;;;;;;6.40;1.17;;;24.80;99.90;;;;;;5057355;28;20481;-94
2023/07/18 10:05:36;;;;;;;3.47;1.00;;;24.50;99.90;;;;;;5040815;28;20033;-88
2023/07/18 10:08:03;;;;;;;5.82;1.23;;;24.50;99.90;;;;;;5056966;28;20068;-88
2023/07/18 10:10:29;;;;;;;3.58;1.10;;;24.60;99.90;;;;;;5040527;28;20052;-84
2023/07/18 10:12:56;;;;;;;4.88;1.20;;;24.80;99.90;;;;;;5055682;28;20475;-85
2023/07/18 10:15:25;;;;;;;8.13;1.17;;;24.90;99.90;;;;;;5074065;28;20087;-87
2023/07/18 10:17:52;;;;;;;4.47;1.20;;;24.60;99.90;;;;;;5053969;28;20045;-89
2023/07/18 10:20:22;;;;;;;6.00;1.48;;;24.70;99.90;;;;;;5036888;28;20136;-86
2023/07/18 10:22:48;;;;;;;6.20;1.42;;;24.60;99.90;;;;;;5037213;28;20375;-86
2023/07/18 10:27:46;;;;;;;6.63;1.63;;;24.40;99.90;;;;;;5053012;28;20057;-86
2023/07/18 10:30:13;;;;;;;4.28;1.40;;;24.20;99.90;;;;;;5036635;28;20504;-87
2023/07/18 10:32:41;;;;;;;8.70;1.45;;;24.00;99.90;;;;;;5053337;28;20048;-85
2023/07/18 10:35:08;;;;;;;5.20;1.65;;;24.20;99.90;;;;;;5054002;28;20041;-85
2023/07/18 10:37:36;;;;;;;6.20;1.85;;;24.40;99.90;;;;;;5036593;28;20045;-86
2023/07/18 10:40:04;;;;;;;7.50;1.70;;;24.70;99.90;;;;;;5053169;28;20434;-85
2023/07/18 10:42:32;;;;;;;5.32;1.50;;;25.20;99.90;;;;;;5054534;28;20040;-87
2023/07/18 10:44:59;;;;;;;6.18;1.75;;;25.60;99.90;;;;;;5053063;28;20056;-83
2023/07/18 10:47:26;;;;;;;6.30;1.40;;;25.60;99.90;;;;;;5036410;28;20045;-85
2023/07/18 10:49:53;;;;;;;5.70;1.80;;;25.70;99.90;;;;;;5036214;28;20041;-88
2023/07/18 10:52:20;;;;;;;5.38;1.55;;;25.20;99.90;;;;;;5056435;28;20045;-88
2023/07/18 10:54:47;;;;;;;6.28;1.50;;;25.00;99.90;;;;;;5040241;28;20471;-89
2023/07/18 10:59:59;;;;;;;5.15;1.52;;;26.00;99.90;;;;;;5056673;28;20124;-85
2023/07/18 11:02:26;;;;;;;6.22;1.52;;;26.40;99.90;;;;;;5031307;28;20257;-83
2023/07/18 11:04:53;;;;;;;4.18;1.30;;;26.80;99.90;;;;;;5058546;28;20036;-85
2023/07/18 11:07:21;;;;;;;5.55;1.40;;;27.20;99.90;;;;;;5059627;28;20086;-85
2023/07/18 11:09:48;;;;;;;5.22;1.35;;;27.10;99.90;;;;;;5059020;28;20086;-83
2023/07/18 11:12:15;;;;;;;12.40;1.80;;;27.20;99.90;;;;;;5076106;28;20036;-83
2023/07/18 11:14:42;;;;;;;5.57;1.50;;;26.90;99.90;;;;;;5059949;28;20114;-84
2023/07/18 11:17:11;;;;;;;7.03;1.60;;;26.90;99.90;;;;;;5059284;28;20040;-82
2023/07/18 11:19:38;;;;;;;5.30;1.50;;;26.80;99.90;;;;;;5076255;28;20044;-87
2023/07/18 11:22:04;;;;;;;4.90;1.35;;;26.50;99.90;;;;;;5042953;28;20044;-85
2023/07/18 11:24:31;;;;;;;6.40;1.52;;;26.30;99.90;;;;;;5076853;28;20036;-85
2023/07/18 11:26:58;;;;;;;6.82;1.45;;;26.20;99.90;;;;;;5058358;28;20528;-85
2023/07/18 11:29:25;;;;;;;7.28;1.83;;;26.30;99.90;;;;;;5059426;28;20075;-89
2023/07/18 11:31:52;;;;;;;6.60;1.45;;;26.20;99.90;;;;;;5058504;28;20051;-85
2023/07/18 11:34:22;;;;;;;7.00;1.70;;;26.10;99.90;;;;;;5076961;28;20037;-84
2023/07/18 11:39:34;;;;;;;5.93;1.50;;;25.90;99.90;;;;;;5075462;28;20086;-86
2023/07/18 11:42:01;;;;;;;5.85;1.42;;;25.80;99.90;;;;;;5042500;28;20060;-85
2023/07/18 11:44:28;;;;;;;5.35;1.35;;;25.60;99.60;;;;;;5059320;28;20044;-87
2023/07/18 11:46:55;;;;;;;8.38;1.55;;;25.30;99.60;;;;;;5056522;28;20045;-83
2023/07/18 11:49:23;;;;;;;6.20;1.50;;;25.00;99.90;;;;;;5071094;28;20110;-84
2023/07/18 11:51:50;;;;;;;5.55;1.50;;;25.20;99.90;;;;;;5041570;28;20053;-83
2023/07/18 11:54:17;;;;;;;4.35;1.30;;;24.80;99.90;;;;;;5044726;28;20439;-84
2023/07/18 11:56:44;;;;;;;4.88;1.23;;;24.50;99.90;;;;;;5055735;28;20460;-82
2023/07/18 11:59:10;;;;;;;5.13;1.58;;;24.70;99.90;;;;;;5054398;28;20069;-83
2023/07/18 12:01:37;;;;;;;5.28;1.35;;;24.80;99.90;;;;;;5069212;28;20087;-81
2023/07/18 12:04:04;;;;;;;5.65;1.40;;;24.60;99.90;;;;;;5045028;28;20465;-81
2023/07/18 12:06:32;;;;;;;4.93;1.42;;;24.40;99.90;;;;;;5072335;28;20081;-85
2023/07/18 12:08:58;;;;;;;6.22;1.33;;;24.40;99.90;;;;;;5075904;28;20075;-85
2023/07/18 12:11:25;;;;;;;5.10;1.33;;;24.50;99.90;;;;;;5057966;28;20044;-85
2023/07/18 12:13:52;;;;;;;4.68;1.10;;;24.80;99.90;;;;;;5058587;28;20508;-84
2023/07/18 12:19:06;;;;;;;4.57;1.35;;;24.50;99.90;;;;;;5074800;28;20036;-84
2023/07/18 12:21:33;;;;;;;5.43;1.38;;;24.40;99.90;;;;;;5042281;28;20036;-83
2023/07/18 12:24:00;;;;;;;5.72;1.25;;;24.20;99.90;;;;;;5057964;28;20467;-83
2023/07/18 12:29:30;;;;;;;4.85;1.98;;;24.60;99.90;;;;;;5055785;28;20052;-85
2023/07/18 12:31:57;;;;;;;5.18;1.25;;;25.00;99.90;;;;;;5037667;28;20539;-82
2023/07/18 12:34:23;;;;;;;5.85;1.60;;;25.40;99.90;;;;;;5045678;28;20483;-83
2023/07/18 12:36:51;;;;;;;5.93;1.48;;;25.80;99.90;;;;;;5057958;28;20471;-83
2023/07/18 12:39:19;;;;;;;5.68;1.70;;;26.60;99.90;;;;;;5074569;28;20044;-88
2023/07/18 12:41:45;;;;;;;6.80;1.95;;;27.20;99.90;;;;;;5057970;28;20463;-83
2023/07/18 12:44:12;;;;;;;7.68;1.73;;;28.00;98.60;;;;;;5075712;28;20036;-81
2023/07/18 12:46:39;;;;;;;4.63;1.38;;;28.00;98.40;;;;;;5057279;28;20079;-83
2023/07/18 12:49:06;;;;;;;5.63;1.58;;;27.50;99.30;;;;;;5075387;28;20046;-83
2023/07/18 12:51:33;;;;;;;4.78;1.67;;;27.20;99.20;;;;;;5074444;28;20063;-84
2023/07/18 12:54:00;;;;;;;7.95;1.77;;;27.10;98.30;;;;;;5057655;28;20044;-85
2023/07/18 12:59:13;;;;;;;12.77;1.90;;;27.80;98.60;;;;;;5056700;28;20087;-83
2023/07/18 13:01:39;;;;;;;5.32;1.60;;;27.50;98.90;;;;;;5075141;28;20064;-86
2023/07/18 13:04:06;;;;;;;9.18;2.10;;;27.30;98.70;;;;;;5075201;28;20456;-85
2023/07/18 13:09:03;;;;;;;4.35;1.48;;;27.40;97.60;;;;;;5057476;28;20529;-84
2023/07/18 13:11:30;;;;;;;7.13;1.77;;;26.50;97.00;;;;;;5074854;28;20075;-83
2023/07/18 13:13:56;;;;;;;8.18;1.70;;;25.80;98.10;;;;;;5074606;28;20512;-84
2023/07/18 13:16:25;;;;;;;5.22;1.65;;;25.40;98.60;;;;;;5074912;28;20094;-84
2023/07/18 13:18:52;;;;;;;7.07;1.60;;;25.40;99.90;;;;;;5074013;28;20520;-83
2023/07/18 13:21:19;;;;;;;5.10;1.52;;;25.30;99.10;;;;;;5057238;28;20036;-83
2023/07/18 13:23:45;;;;;;;7.32;1.77;;;25.30;99.30;;;;;;5075416;28;20458;-85